Main page
METAR-TAF:

METAR-TAF

Airports :

Caen – Carpiquet Airport

Caen, France

latitude: 49-11N, longitude: 000-27W, elevation: 78 m

Current weather observation

The report was made 36 minutes ago, at 20:00 UTC
Wind 6 kt from the North
Temperature 14°C
Humidity 77%
Pressure 1029 hPa
Visibility 10 km or more
no clouds below 1500 m and no cumulonimbus

METAR: LFRK 222000Z AUTO 01006KT CAVOK 14/10 Q1029 NOSIG

Time: 22:36 (20:36 UTC)

Forecast

The report was made 6 hours and 36 minutes ago, at 14:00 UTC
Forecast valid from 22 at 15 UTC to 22 at 24 UTC
Wind 10 kt from the North/Northeast
Visibility 10 km or more
no clouds below 1500 m and no cumulonimbus
Becoming
from 22 at 20 UTC to 22 at 22 UTC
Wind 3 kt from variable directions

TAF: LFRK 221400Z 2215/2224 02010KT CAVOK BECMG 2220/2222 VRB03KT

Weather observations and forecasts of more than 4000 airports (METAR and TAF reports).

The available stations are represented by yellow and red dots on the map.

Hover mouse over dot to see the name of the station.

Then click to see weather observations and forecasts.

To change the map : click on the green buttons with a black cross to zoom in, on the green button with a dash to zoom out, or on the green arrows for adjacent maps.


METAR-TAF: